McClean, Nebraska
Current Conditions -  °F | °C
As of 11:15 PM on Wednesday 22 Oct 2014 (Local Time) from KLCG Reporting Station
Overcast Overcast  
Wind Chill: 58°   Ceiling: 1800
Heat Index: 58°   Visibility: 10mi
Dew Point: 57°   Wind: 3mph
Humidity: 96%   Direction: 300°WNW
Pressure: 30.04"   Gusts: NA
Location:  42.395°N, 97.4752°W
Report Text: KLCG 230415Z AUTO 30003KT 10SM SCT009 OVC018 15/14 A3004 RMK AO2 T01470140
Loading
Personal Weather Stations






























Interactive Weather Map
Tropical Storm Tracking
New forecast layout! Learn more

10-Day Weather Forecast

Advertisements
Track Severe Weather on mobile